Terminal Aerodrome Forecast
Issued by NWS

Home | Current Version | Previous Version | Text Only | Print | Product List | Glossary On
Versions: 1 2 3 4 5 6 7 8 9 10 11 12 13 14 15 16 17 18 19 20 21 22 23
000
FTUS43 KDVN 211146
TAFBRL
TAF
KBRL 211146Z 2112/2212 VRB03KT P6SM -TSRA BKN060CB
     FM211500 11013KT P6SM VCTS BKN080CB
     FM211900 19011KT P6SM BKN150
     FM220700 VRB15G25KT 4SM -TSRA BKN040CB
     FM220900 25007KT P6SM SCT050=

USA.gov is the U.S. government's official web portal to all federal, state and local government web resources and services.